地図

経路データ

SID SEASON NUMBER BASIN SUBBASIN NAME ISO_TIME NATURE LAT LON WMO_WIND WMO_PRES WMO_AGENCY TRACK_TYPE DIST2LAND LANDFALL IFLAG USA_AGENCY USA_ATCF_ID USA_LAT USA_LON USA_RECORD USA_STATUS USA_WIND USA_PRES USA_SSHS USA_R34_NE USA_R34_SE USA_R34_SW USA_R34_NW USA_R50_NE USA_R50_SE USA_R50_SW USA_R50_NW USA_R64_NE USA_R64_SE USA_R64_SW USA_R64_NW USA_POCI USA_ROCI USA_RMW USA_EYE TOKYO_LAT TOKYO_LON TOKYO_GRADE TOKYO_WIND TOKYO_PRES TOKYO_R50_DIR TOKYO_R50_LONG TOKYO_R50_SHORT TOKYO_R30_DIR TOKYO_R30_LONG TOKYO_R30_SHORT TOKYO_LAND CMA_LAT CMA_LON CMA_CAT CMA_WIND CMA_PRES HKO_LAT HKO_LON HKO_CAT HKO_WIND HKO_PRES NEWDELHI_LAT NEWDELHI_LON NEWDELHI_GRADE NEWDELHI_WIND NEWDELHI_PRES NEWDELHI_CI NEWDELHI_DP NEWDELHI_POCI REUNION_LAT REUNION_LON REUNION_TYPE REUNION_WIND REUNION_PRES REUNION_TNUM REUNION_CI REUNION_RMW REUNION_R34_NE REUNION_R34_SE REUNION_R34_SW REUNION_R34_NW REUNION_R50_NE REUNION_R50_SE REUNION_R50_SW REUNION_R50_NW REUNION_R64_NE REUNION_R64_SE REUNION_R64_SW REUNION_R64_NW BOM_LAT BOM_LON BOM_TYPE BOM_WIND BOM_PRES BOM_TNUM BOM_CI BOM_RMW BOM_R34_NE BOM_R34_SE BOM_R34_SW BOM_R34_NW BOM_R50_NE BOM_R50_SE BOM_R50_SW BOM_R50_NW BOM_R64_NE BOM_R64_SE BOM_R64_SW BOM_R64_NW BOM_ROCI BOM_POCI BOM_EYE BOM_POS_METHOD BOM_PRES_METHOD NADI_LAT NADI_LON NADI_CAT NADI_WIND NADI_PRES WELLINGTON_LAT WELLINGTON_LON WELLINGTON_WIND WELLINGTON_PRES DS824_LAT DS824_LON DS824_STAGE DS824_WIND DS824_PRES TD9636_LAT TD9636_LON TD9636_STAGE TD9636_WIND TD9636_PRES TD9635_LAT TD9635_LON TD9635_WIND TD9635_PRES TD9635_ROCI NEUMANN_LAT NEUMANN_LON NEUMANN_CLASS NEUMANN_WIND NEUMANN_PRES MLC_LAT MLC_LON MLC_CLASS MLC_WIND MLC_PRES USA_GUST BOM_GUST BOM_GUST_PER REUNION_GUST REUNION_GUST_PER USA_SEAHGT USA_SEARAD_NE USA_SEARAD_SE USA_SEARAD_SW USA_SEARAD_NW STORM_SPEED STORM_DIR
1861305N26278 1861 33 NA GM NOT_NAMED 1861-11-01 06:00:00 TS 25.5000 -82.1000 60 hurdat_atl main 60 9 O_____________ hurdat_atl AL081861 25.5000 -82.1000 TS 60 0 17 29
1861305N26278 1861 33 NA GM NOT_NAMED 1861-11-01 08:00:00 TS 26.0000 -81.8000 60 hurdat_atl main 9 0 O_____________ hurdat_atl AL081861 26.0000 -81.8000 L TS 60 0 18 28
1861305N26278 1861 33 NA NA NOT_NAMED 1861-11-01 09:00:00 TS 26.2763 -81.6341 main 0 0 P_____________ AL081861 26.2763 -81.6341 TS 57 0 20 28
1861305N26278 1861 33 NA NA NOT_NAMED 1861-11-01 12:00:00 TS 27.2000 -81.1000 50 hurdat_atl main 0 0 O_____________ hurdat_atl AL081861 27.2000 -81.1000 TS 50 0 21 25
1861305N26278 1861 33 NA NA NOT_NAMED 1861-11-01 15:00:00 TS 28.1811 -80.6291 main 9 0 P_____________ AL081861 28.1811 -80.6291 TS 55 0 22 24
1861305N26278 1861 33 NA NA NOT_NAMED 1861-11-01 18:00:00 TS 29.2000 -80.1000 60 hurdat_atl main 75 75 O_____________ hurdat_atl AL081861 29.2000 -80.1000 TS 60 0 23 29
1861305N26278 1861 33 NA NA NOT_NAMED 1861-11-01 21:00:00 TS 30.2004 -79.3725 main 185 185 P_____________ AL081861 30.2004 -79.3725 TS 65 1 24 33
1861305N26278 1861 33 NA NA NOT_NAMED 1861-11-02 00:00:00 TS 31.2000 -78.6000 70 hurdat_atl main 204 165 O_____________ hurdat_atl AL081861 31.2000 -78.6000 HU 70 1 23 32
1861305N26278 1861 33 NA NA NOT_NAMED 1861-11-02 03:00:00 TS 32.1769 -77.9116 main 164 105 P_____________ AL081861 32.1769 -77.9116 HU 70 1 23 29
1861305N26278 1861 33 NA NA NOT_NAMED 1861-11-02 06:00:00 TS 33.2000 -77.3000 70 hurdat_atl main 101 44 O_____________ hurdat_atl AL081861 33.2000 -77.3000 HU 70 1 24 24
1861305N26278 1861 33 NA NA NOT_NAMED 1861-11-02 09:00:00 TS 34.3707 -76.7605 main 33 11 P_____________ AL081861 34.3707 -76.7605 HU 70 1 24 21
1861305N26278 1861 33 NA NA NOT_NAMED 1861-11-02 10:00:00 TS 34.7000 -76.6000 70 hurdat_atl main 0 0 O_____________ hurdat_atl AL081861 34.7000 -76.6000 L HU 70 1 18 25
1861305N26278 1861 33 NA NA NOT_NAMED 1861-11-02 12:00:00 TS 35.2000 -76.3000 70 hurdat_atl main 14 0 O_____________ hurdat_atl AL081861 35.2000 -76.3000 HU 70 1 19 28
1861305N26278 1861 33 NA NA NOT_NAMED 1861-11-02 15:00:00 TS 36.0718 -75.6907 main 0 0 P_____________ AL081861 36.0718 -75.6907 HU 65 1 21 30
1861305N26278 1861 33 NA NA NOT_NAMED 1861-11-02 18:00:00 TS 37.0000 -75.0000 60 hurdat_atl main 80 78 O_____________ hurdat_atl AL081861 37.0000 -75.0000 TS 60 0 21 30
1861305N26278 1861 33 NA NA NOT_NAMED 1861-11-02 21:00:00 TS 37.8648 -74.3764 main 75 75 P_____________ AL081861 37.8648 -74.3764 TS 60 0 19 29
1861305N26278 1861 33 NA NA NOT_NAMED 1861-11-03 00:00:00 TS 38.7000 -73.8000 60 hurdat_atl main 89 74 O_____________ hurdat_atl AL081861 38.7000 -73.8000 TS 60 0 18 27
1861305N26278 1861 33 NA NA NOT_NAMED 1861-11-03 03:00:00 TS 39.4475 -73.3419 main 83 58 P_____________ AL081861 39.4475 -73.3419 TS 60 0 18 26
1861305N26278 1861 33 NA NA NOT_NAMED 1861-11-03 06:00:00 TS 40.3000 -72.8000 60 hurdat_atl main 51 8 O_____________ hurdat_atl AL081861 40.3000 -72.8000 TS 60 0 21 27
1861305N26278 1861 33 NA NA NOT_NAMED 1861-11-03 08:00:00 TS 41.0000 -72.3000 60 hurdat_atl main 13 11 O_____________ hurdat_atl AL081861 41.0000 -72.3000 L TS 60 0 22 34
1861305N26278 1861 33 NA NA NOT_NAMED 1861-11-03 09:00:00 TS 41.2000 -72.0000 60 hurdat_atl main 11 0 O_____________ hurdat_atl AL081861 41.2000 -72.0000 L TS 60 0 17 31
1861305N26278 1861 33 NA NA NOT_NAMED 1861-11-03 12:00:00 TS 42.0000 -71.5000 50 1000 hurdat_atl main 0 0 O_____________ hurdat_atl AL081861 42.0000 -71.5000 TS 50 1000 0 20 26
1861305N26278 1861 33 NA NA NOT_NAMED 1861-11-03 15:00:00 TS 42.9685 -70.8641 main 0 0 P_____________ AL081861 42.9685 -70.8641 TS 50 999 0 23 29
1861305N26278 1861 33 NA NA NOT_NAMED 1861-11-03 18:00:00 TS 44.0000 -70.0000 50 999 hurdat_atl main 0 O_____________ hurdat_atl AL081861 44.0000 -70.0000 TS 50 999 0 24 31

IBTrACS Databaseについて

本データベースは、米国NOAAが公開する1842年以降の世界の熱帯低気圧のベストトラックデータアーカイブInternational Best Track Archive for Climate Stewardship (IBTrACS)を、ウェブで閲覧しやすい形式に変換したものです。

最終更新日:2021-12-01